EGQK

RAF Kinloss

Airport
ICAO code
EGQK
Summary
ICAO Region
EUR
ICAO Territory
Location

FRAF Kinloss, Scotland, United Kingdom,

Elevation
22 ft
Coordinates
57° 38' 58" N , 3° 33' 38" W
KCC
Metar
EGQK 222020Z AUTO 23009KT 9999 SCT240/// 02/M01 Q0973

Description

Military (Royal Air Force) airfield.

Climatology

Temperate Marine climate/Oceanic climate (Köppen climate classification Cfb). Moderately cool summer and comparatively warm winter with a temperature range of only 14°C. Prevailing south-westerly winds from the Atlantic Ocean.

Runways

Designator Length Width Surface Rops
8/26 2311 46 ASP Yes/Yes

Airport map

Aerial View

SKYbrary Partners:

Safety knowledge contributed by: